FVDA weather

Dawsons Airport
Mvurwi, Mashonaland Central Province, Zimbabwe

Public forecast

Using degrees Celsius for public forecast. Weather courtesy of forecast.io.

METAR (pilot weather report)

Closest report is Robert Gabriel Mugabe International Airport, 56.8 nm (105.2 km) SSE. Retrieved 2019/03/24 03:00 UTC (2 hours ago):

FVRG 240300Z 14005KT 110V180 9999 BKN008 17/15 Q1022 NOSIG

TAF (pilot weather forecast)

Forecast is more than 6 hours old.

Closest forecast is Robert Gabriel Mugabe International Airport, 56.8 nm (105.2 km) SSE. Retrieved 2019/03/23 18:00 UTC (11 hours ago):

TAF FVRG 231600Z 2318/2424 14012KT CAVOK BECMG 2408/2410 SCT035 TEMPO 2410/2412 12010KT 9999 BKN040 FM241200 CAVOK